createdAt,value
2022-11-05T00:00:17.127Z,10.45
2022-11-05T00:03:03.020Z,10.57
2022-11-05T00:05:49.891Z,11.60
2022-11-05T00:08:48.414Z,11.27
2022-11-05T00:11:18.305Z,12.57
2022-11-05T00:14:04.596Z,11.45
2022-11-05T00:16:44.777Z,11.73
2022-11-05T00:19:13.580Z,11.95
2022-11-05T00:22:04.651Z,11.77
2022-11-05T00:24:51.715Z,10.82
2022-11-05T00:27:19.968Z,12.20
2022-11-05T00:29:47.972Z,13.20
2022-11-05T00:32:16.138Z,11.32
2022-11-05T00:34:45.364Z,12.60
2022-11-05T00:37:16.658Z,11.60
2022-11-05T00:39:46.152Z,10.55
2022-11-05T00:42:31.911Z,11.80
2022-11-05T00:45:02.989Z,10.10
2022-11-05T00:47:50.750Z,12.15
2022-11-05T00:50:19.673Z,11.90
2022-11-05T00:52:57.645Z,11.70
2022-11-05T00:55:33.468Z,11.88
2022-11-05T00:58:02.934Z,12.38
2022-11-05T01:00:32.680Z,11.10
2022-11-05T01:03:02.419Z,12.40
2022-11-05T01:05:32.306Z,11.45
2022-11-05T01:08:00.725Z,13.32
2022-11-05T01:10:30.200Z,10.90
2022-11-05T01:12:59.115Z,10.20
2022-11-05T01:15:27.404Z,11.90
2022-11-05T01:17:55.551Z,10.82
2022-11-05T01:20:23.858Z,10.93
2022-11-05T01:22:51.988Z,10.45
2022-11-05T01:25:20.299Z,12.55
2022-11-05T01:27:49.731Z,10.27
2022-11-05T01:30:18.047Z,9.52
2022-11-05T01:32:46.233Z,10.45
2022-11-05T01:35:16.765Z,9.00
2022-11-05T01:37:45.116Z,9.73
2022-11-05T01:40:15.851Z,9.30
2022-11-05T01:42:44.534Z,8.70
2022-11-05T01:45:17.208Z,9.43
2022-11-05T01:48:02.629Z,8.95
2022-11-05T01:50:49.341Z,9.52
2022-11-05T01:53:25.241Z,8.07
2022-11-05T01:55:58.910Z,7.78
2022-11-05T01:58:32.675Z,7.60
2022-11-05T02:01:02.627Z,8.82
2022-11-05T02:03:31.161Z,8.50
2022-11-05T02:06:02.315Z,10.35
2022-11-05T02:08:46.303Z,11.00
2022-11-05T02:14:53.731Z,10.00
2022-11-05T02:17:34.598Z,10.18
2022-11-05T02:20:18.895Z,9.80
2022-11-05T02:23:12.883Z,6.68
2022-11-05T02:26:32.852Z,6.22
2022-11-05T02:29:41.925Z,7.20
2022-11-05T02:32:21.194Z,7.10
2022-11-05T02:34:56.734Z,6.30
2022-11-05T02:37:38.374Z,7.70
2022-11-05T02:40:14.674Z,6.13
2022-11-05T02:42:47.184Z,7.47
2022-11-05T02:45:26.961Z,6.28
2022-11-05T02:48:01.347Z,6.25
2022-11-05T02:50:35.108Z,7.32
2022-11-05T02:53:10.232Z,7.05
2022-11-05T02:55:43.092Z,6.25
2022-11-05T02:58:11.226Z,6.88
2022-11-05T03:00:50.115Z,7.32
2022-11-05T03:03:29.780Z,7.07
2022-11-05T03:06:18.723Z,7.05
2022-11-05T03:09:24.255Z,6.22
2022-11-05T03:12:01.191Z,6.00
2022-11-05T03:14:41.467Z,5.55
2022-11-05T03:17:20.059Z,5.30
2022-11-05T03:19:54.851Z,5.05
2022-11-05T03:22:25.513Z,5.32
2022-11-05T03:24:59.315Z,4.95
2022-11-05T03:27:31.395Z,6.07
2022-11-05T03:30:03.487Z,5.57
2022-11-05T03:32:35.051Z,5.72
2022-11-05T03:35:09.647Z,6.22
2022-11-05T03:37:41.023Z,5.65
2022-11-05T03:40:13.005Z,5.30
2022-11-05T03:42:46.336Z,4.82
2022-11-05T03:45:20.106Z,6.65
2022-11-05T03:47:51.537Z,5.97
2022-11-05T03:50:24.741Z,6.15
2022-11-05T03:52:55.589Z,6.00
2022-11-05T03:55:30.371Z,5.15
2022-11-05T03:58:00.459Z,6.85
2022-11-05T04:00:28.539Z,6.78
2022-11-05T04:02:56.981Z,5.75
2022-11-05T04:05:26.531Z,6.25
2022-11-05T04:08:14.501Z,5.15
2022-11-05T04:11:02.489Z,5.78
2022-11-05T04:13:30.652Z,6.30
2022-11-05T04:16:19.565Z,6.72
2022-11-05T04:18:48.305Z,6.15
2022-11-05T04:21:35.290Z,6.90
2022-11-05T04:24:09.518Z,6.43
2022-11-05T04:26:38.979Z,4.78
2022-11-05T04:29:24.966Z,4.13
2022-11-05T04:31:53.838Z,3.42
2022-11-05T04:34:23.022Z,3.50
2022-11-05T04:36:54.175Z,3.17
2022-11-05T04:39:22.633Z,3.28
2022-11-05T04:41:50.579Z,2.78
2022-11-05T04:44:18.705Z,3.45
2022-11-05T04:46:46.691Z,2.58
2022-11-05T04:49:14.876Z,2.80
2022-11-05T04:51:43.185Z,3.30
2022-11-05T04:54:12.556Z,3.10
2022-11-05T04:56:40.508Z,2.40
2022-11-05T04:59:08.530Z,2.85
2022-11-05T05:01:36.616Z,2.10
2022-11-05T05:04:04.949Z,2.20
2022-11-05T05:06:32.920Z,2.20
2022-11-05T05:09:01.248Z,2.35
2022-11-05T05:11:30.788Z,1.60
2022-11-05T05:13:58.802Z,2.33
2022-11-05T05:16:28.300Z,2.00
2022-11-05T05:18:56.430Z,1.77
2022-11-05T05:21:39.249Z,2.20
2022-11-05T05:24:09.762Z,1.67
2022-11-05T05:26:41.073Z,1.48
2022-11-05T05:29:10.414Z,1.42
2022-11-05T05:31:39.108Z,0.90
2022-11-05T05:34:08.737Z,0.90
2022-11-05T05:36:36.653Z,1.13
2022-11-05T05:39:06.187Z,1.45
2022-11-05T05:41:35.008Z,1.70
2022-11-05T05:44:05.861Z,1.83
2022-11-05T05:46:33.971Z,2.28
2022-11-05T05:49:03.035Z,1.95
2022-11-05T05:51:32.485Z,2.58
2022-11-05T05:54:00.507Z,3.22
2022-11-05T05:56:28.693Z,2.30
2022-11-05T05:58:57.061Z,2.92
2022-11-05T06:01:26.610Z,2.83
2022-11-05T06:03:54.796Z,2.60
2022-11-05T06:06:22.792Z,3.38
2022-11-05T06:08:50.847Z,2.85
2022-11-05T06:11:18.942Z,2.90
2022-11-05T06:13:46.975Z,3.67
2022-11-05T06:16:15.124Z,3.72
2022-11-05T06:18:44.567Z,3.50
2022-11-05T06:21:14.684Z,4.22
2022-11-05T06:23:45.118Z,4.40
2022-11-05T06:26:15.602Z,4.68
2022-11-05T06:28:44.205Z,4.30
2022-11-05T06:31:14.326Z,3.90
2022-11-05T06:33:42.526Z,4.88
2022-11-05T06:36:15.716Z,4.30
2022-11-05T06:38:43.872Z,4.20
2022-11-05T06:41:11.833Z,4.40
2022-11-05T06:43:40.109Z,4.65
2022-11-05T06:46:08.750Z,3.60
2022-11-05T06:48:36.718Z,4.40
2022-11-05T06:51:05.614Z,4.63
2022-11-05T06:53:36.175Z,3.10
2022-11-05T06:56:05.537Z,2.90
2022-11-05T06:58:34.159Z,5.55
2022-11-05T07:01:03.332Z,4.97
2022-11-05T07:03:31.531Z,3.83
2022-11-05T07:06:00.915Z,4.07
2022-11-05T07:08:32.024Z,4.68
2022-11-05T07:11:01.899Z,3.58
2022-11-05T07:13:29.875Z,4.05
2022-11-05T07:15:57.986Z,3.60
2022-11-05T07:18:26.191Z,4.25
2022-11-05T07:20:54.262Z,3.22
2022-11-05T07:23:22.407Z,4.07
2022-11-05T07:25:50.401Z,4.70
2022-11-05T07:28:20.416Z,4.10
2022-11-05T07:30:49.293Z,4.13
2022-11-05T07:33:17.304Z,5.05
2022-11-05T07:35:45.412Z,4.63
2022-11-05T07:38:13.465Z,5.15
2022-11-05T07:40:41.614Z,5.35
2022-11-05T07:43:10.001Z,5.97
2022-11-05T07:45:39.979Z,5.78
2022-11-05T07:48:08.480Z,4.95
2022-11-05T07:50:38.183Z,5.70
2022-11-05T07:53:08.024Z,6.43
2022-11-05T07:55:36.633Z,6.80
2022-11-05T07:58:05.014Z,6.22
2022-11-05T08:00:34.293Z,5.10
2022-11-05T08:03:08.498Z,5.88
2022-11-05T08:05:39.703Z,5.93
2022-11-05T08:08:09.491Z,5.82
2022-11-05T08:10:38.857Z,6.20
2022-11-05T08:13:08.666Z,6.18
2022-11-05T08:15:37.197Z,4.82
2022-11-05T08:18:08.499Z,5.85
2022-11-05T08:20:38.488Z,6.63
2022-11-05T08:23:06.772Z,6.25
2022-11-05T08:25:34.852Z,7.00
2022-11-05T08:28:05.211Z,5.82
2022-11-05T08:30:33.978Z,5.53
2022-11-05T08:33:04.775Z,5.78
2022-11-05T08:35:35.576Z,5.47
2022-11-05T08:38:06.387Z,5.10
2022-11-05T08:40:37.067Z,5.45
2022-11-05T08:43:07.510Z,6.22
2022-11-05T08:45:38.514Z,6.45
2022-11-05T08:48:08.841Z,4.30
2022-11-05T08:50:40.541Z,5.07
2022-11-05T08:53:10.605Z,4.82
2022-11-05T08:55:39.185Z,4.65
2022-11-05T08:58:09.103Z,5.20
2022-11-05T09:00:37.934Z,5.10
2022-11-05T09:03:08.335Z,4.45
2022-11-05T09:05:39.286Z,4.95
2022-11-05T09:08:10.388Z,4.03
2022-11-05T09:10:39.061Z,4.88
2022-11-05T09:13:07.136Z,5.55
2022-11-05T09:15:36.546Z,4.03
2022-11-05T09:18:05.992Z,4.63
2022-11-05T09:20:36.704Z,4.20
2022-11-05T09:23:04.787Z,4.88
2022-11-05T09:25:34.730Z,5.00
2022-11-05T09:28:15.909Z,4.50
2022-11-05T09:30:46.885Z,5.35
2022-11-05T09:33:15.298Z,4.72
2022-11-05T09:35:43.728Z,5.68
2022-11-05T09:38:11.691Z,4.53
2022-11-05T09:40:48.259Z,3.90
2022-11-05T09:43:20.311Z,4.30
2022-11-05T09:45:52.892Z,4.32
2022-11-05T09:48:25.974Z,6.10
2022-11-05T09:50:55.146Z,5.07
2022-11-05T09:53:24.952Z,5.30
2022-11-05T09:55:57.348Z,4.20
2022-11-05T09:58:37.242Z,5.10
2022-11-05T10:01:07.675Z,5.20
2022-11-05T10:03:43.853Z,5.07
2022-11-05T10:06:18.499Z,4.68
2022-11-05T10:08:50.384Z,4.10
2022-11-05T10:11:26.056Z,6.03
2022-11-05T10:14:00.255Z,4.55
2022-11-05T10:16:32.084Z,4.20
2022-11-05T10:19:07.295Z,4.38
2022-11-05T10:22:04.411Z,3.80
2022-11-05T10:24:24.752Z,4.10
2022-11-05T10:26:55.697Z,4.95
2022-11-05T10:29:29.276Z,4.82
2022-11-05T10:31:58.981Z,4.10
2022-11-05T10:34:31.375Z,4.22
2022-11-05T10:36:59.632Z,5.05
2022-11-05T10:39:28.719Z,3.95
2022-11-05T10:42:10.011Z,4.10
2022-11-05T10:44:45.196Z,3.97
2022-11-05T10:47:36.307Z,3.67
2022-11-05T10:50:10.726Z,3.67
2022-11-05T10:52:41.253Z,3.25
2022-11-05T10:55:18.129Z,4.70
2022-11-05T10:57:49.434Z,5.45
2022-11-05T11:00:31.551Z,5.82
2022-11-05T11:03:01.683Z,3.70
2022-11-05T11:05:32.898Z,5.13
2022-11-05T11:08:22.306Z,3.67
2022-11-05T11:10:53.019Z,4.25
2022-11-05T11:13:24.287Z,3.95
2022-11-05T11:15:52.805Z,3.53
2022-11-05T11:18:35.878Z,3.15
2022-11-05T11:21:13.286Z,3.88
2022-11-05T11:23:42.943Z,4.28
2022-11-05T11:26:12.832Z,3.85
2022-11-05T11:28:47.149Z,3.20
2022-11-05T11:31:18.350Z,3.30
2022-11-05T11:33:49.225Z,4.20
2022-11-05T11:36:18.980Z,3.88
2022-11-05T11:38:47.484Z,3.15
2022-11-05T11:41:26.421Z,4.57
2022-11-05T11:43:58.495Z,4.70
2022-11-05T11:46:27.276Z,4.55
2022-11-05T11:48:55.295Z,4.22
2022-11-05T11:51:34.246Z,4.20
2022-11-05T11:54:03.056Z,3.20
2022-11-05T11:56:32.565Z,3.03
2022-11-05T11:59:12.921Z,3.95
2022-11-05T12:02:08.435Z,3.83
2022-11-05T12:04:52.220Z,3.95
2022-11-05T12:07:31.670Z,3.80
2022-11-05T12:10:12.758Z,4.82
2022-11-05T12:12:48.094Z,3.30
2022-11-05T12:15:31.227Z,4.10
2022-11-05T12:18:03.707Z,4.57
2022-11-05T12:20:48.110Z,3.58
2022-11-05T12:23:48.847Z,3.60
2022-11-05T12:26:28.542Z,3.45
2022-11-05T12:29:18.704Z,3.17
2022-11-05T12:32:00.044Z,3.75
2022-11-05T12:34:43.806Z,3.90
2022-11-05T12:37:24.037Z,3.22
2022-11-05T12:40:15.835Z,3.10
2022-11-05T12:42:57.799Z,2.80
2022-11-05T12:45:40.245Z,4.60
2022-11-05T12:48:30.360Z,3.00
2022-11-05T12:51:12.630Z,2.70
2022-11-05T12:53:54.038Z,4.43
2022-11-05T12:56:28.511Z,4.30
2022-11-05T12:59:02.066Z,2.75
2022-11-05T13:01:37.826Z,2.88
2022-11-05T13:04:15.699Z,3.97
2022-11-05T13:06:49.685Z,4.78
2022-11-05T13:09:21.297Z,3.28
2022-11-05T13:11:54.696Z,3.25
2022-11-05T13:14:27.888Z,4.13
2022-11-05T13:17:01.231Z,5.78
2022-11-05T13:19:35.981Z,2.88
2022-11-05T13:22:09.771Z,3.10
2022-11-05T13:24:41.465Z,2.85
2022-11-05T13:27:31.861Z,3.58
2022-11-05T13:30:05.498Z,2.20
2022-11-05T13:32:37.365Z,3.30
2022-11-05T13:35:15.211Z,2.65
2022-11-05T13:38:03.916Z,2.80
2022-11-05T13:40:45.914Z,3.50
2022-11-05T13:43:32.807Z,3.05
2022-11-05T13:46:16.731Z,2.92
2022-11-05T13:49:17.192Z,2.72
2022-11-05T13:52:03.808Z,4.13
2022-11-05T13:55:19.061Z,2.70
2022-11-05T13:58:09.397Z,2.85
2022-11-05T14:00:42.408Z,3.50
2022-11-05T14:03:19.352Z,4.15
2022-11-05T14:05:55.538Z,2.85
2022-11-05T14:08:29.057Z,3.50
2022-11-05T14:11:04.287Z,4.88
2022-11-05T14:13:36.227Z,2.88
2022-11-05T14:16:07.984Z,2.75
2022-11-05T14:18:40.366Z,2.58
2022-11-05T14:21:31.714Z,3.50
2022-11-05T14:24:20.232Z,2.63
2022-11-05T14:27:32.952Z,4.28
2022-11-05T14:30:01.885Z,3.83
2022-11-05T14:32:50.012Z,3.15
2022-11-05T14:35:37.777Z,3.70
2022-11-05T14:38:07.480Z,3.15
2022-11-05T14:40:39.666Z,4.80
2022-11-05T14:43:22.505Z,5.15
2022-11-05T14:45:56.268Z,4.65
2022-11-05T14:48:32.845Z,4.22
2022-11-05T14:51:00.992Z,4.15
2022-11-05T14:53:34.757Z,4.15
2022-11-05T14:56:08.083Z,4.90
2022-11-05T14:58:38.175Z,4.88
2022-11-05T15:01:08.297Z,4.15
2022-11-05T15:04:06.703Z,4.75
2022-11-05T15:06:36.765Z,4.97
2022-11-05T15:09:24.027Z,5.28
2022-11-05T15:12:09.121Z,6.95
2022-11-05T15:14:42.409Z,6.53
2022-11-05T15:17:19.550Z,6.70
2022-11-05T15:19:48.657Z,6.90
2022-11-05T15:22:30.334Z,6.97
2022-11-05T15:24:58.687Z,6.45
2022-11-05T15:27:58.151Z,3.97
2022-11-05T15:30:27.260Z,3.58
2022-11-05T15:32:55.382Z,4.10
2022-11-05T15:35:27.017Z,8.43
2022-11-05T15:38:01.800Z,8.55
2022-11-05T15:40:33.479Z,7.25
2022-11-05T15:43:19.486Z,8.13
2022-11-05T15:46:05.602Z,15.43
2022-11-05T15:48:34.577Z,7.32
2022-11-05T15:51:03.006Z,3.83
2022-11-05T15:53:56.529Z,3.42
2022-11-05T15:56:26.045Z,2.45
2022-11-05T15:58:59.832Z,3.20
2022-11-05T16:01:33.370Z,3.40
2022-11-05T16:04:09.767Z,2.63
2022-11-05T16:06:40.869Z,5.40
2022-11-05T16:09:09.171Z,3.20
2022-11-05T16:11:37.738Z,5.65
2022-11-05T16:14:18.533Z,6.32
2022-11-05T16:16:47.454Z,8.35
2022-11-05T16:19:40.850Z,10.40
2022-11-05T16:22:09.777Z,18.15
2022-11-05T16:24:37.892Z,18.65
2022-11-05T16:27:07.099Z,22.25
2022-11-05T16:29:38.640Z,20.73
2022-11-05T16:32:17.464Z,15.85
2022-11-05T16:34:49.371Z,10.68
2022-11-05T16:37:21.544Z,11.63
2022-11-05T16:39:49.659Z,5.93
2022-11-05T16:42:37.970Z,9.25
2022-11-05T16:45:13.658Z,8.48
2022-11-05T16:47:42.728Z,6.82
2022-11-05T16:50:23.958Z,5.18
2022-11-05T16:52:52.784Z,4.72
2022-11-05T16:55:21.474Z,9.13
2022-11-05T16:57:52.349Z,7.03
2022-11-05T17:00:23.225Z,4.95
2022-11-05T17:02:52.035Z,7.03
2022-11-05T17:05:23.251Z,6.00
2022-11-05T17:07:51.817Z,5.07
2022-11-05T17:10:20.445Z,5.45
2022-11-05T17:12:49.075Z,6.82
2022-11-05T17:15:22.317Z,7.78
2022-11-05T17:17:50.868Z,9.65
2022-11-05T17:20:39.431Z,6.93
2022-11-05T17:23:10.204Z,5.22
2022-11-05T17:25:39.000Z,6.15
2022-11-05T17:28:10.988Z,5.22
2022-11-05T17:30:41.945Z,8.68
2022-11-05T17:33:11.304Z,7.53
2022-11-05T17:35:40.430Z,7.93
2022-11-05T17:38:08.655Z,9.45
2022-11-05T17:40:37.759Z,9.05
2022-11-05T17:43:07.318Z,14.23
2022-11-05T17:45:36.084Z,12.88
2022-11-05T17:48:05.877Z,10.07
2022-11-05T17:50:33.821Z,16.02
2022-11-05T17:53:02.248Z,11.60
2022-11-05T17:55:30.223Z,9.68
2022-11-05T17:57:58.404Z,10.57
2022-11-05T18:00:26.414Z,9.85
2022-11-05T18:02:55.058Z,9.60
2022-11-05T18:05:27.855Z,8.80
2022-11-05T18:07:56.517Z,7.50
2022-11-05T18:10:25.470Z,7.68
2022-11-05T18:12:53.547Z,7.65
2022-11-05T18:15:21.546Z,10.63
2022-11-05T18:17:49.850Z,9.73
2022-11-05T18:20:19.661Z,21.92
2022-11-05T18:22:51.847Z,15.75
2022-11-05T18:25:19.967Z,16.10
2022-11-05T18:27:48.095Z,14.63
2022-11-05T18:30:16.131Z,14.57
2022-11-05T18:32:44.806Z,9.88
2022-11-05T18:35:13.243Z,9.32
2022-11-05T18:37:42.034Z,10.65
2022-11-05T18:40:12.544Z,10.43
2022-11-05T18:42:40.834Z,10.02
2022-11-05T18:45:10.497Z,9.43
2022-11-05T18:47:38.637Z,9.82
2022-11-05T18:50:09.315Z,9.80
2022-11-05T18:52:37.544Z,10.35
2022-11-05T18:55:06.312Z,9.27
2022-11-05T18:57:36.029Z,10.15
2022-11-05T19:00:05.226Z,10.45
2022-11-05T19:02:33.721Z,9.93
2022-11-05T19:07:50.010Z,8.00
2022-11-05T19:10:19.211Z,7.80
2022-11-05T19:12:48.592Z,8.25
2022-11-05T19:15:16.646Z,7.75
2022-11-05T19:17:45.431Z,9.23
2022-11-05T19:20:13.557Z,6.75
2022-11-05T19:22:41.574Z,7.78
2022-11-05T19:25:09.610Z,7.05
2022-11-05T19:27:38.618Z,5.75
2022-11-05T19:30:09.043Z,6.95
2022-11-05T19:32:37.203Z,8.00
2022-11-05T19:35:07.760Z,8.93
2022-11-05T19:37:35.756Z,7.85
2022-11-05T19:40:03.696Z,8.77
2022-11-05T19:42:31.650Z,7.85
2022-11-05T19:45:16.745Z,8.43
2022-11-05T19:47:49.197Z,7.50
2022-11-05T19:50:17.962Z,8.65
2022-11-05T19:52:45.953Z,10.02
2022-11-05T19:55:14.093Z,10.38
2022-11-05T19:57:42.077Z,10.50
2022-11-05T20:00:11.171Z,10.10
2022-11-05T20:02:39.179Z,9.55
2022-11-05T20:05:09.276Z,9.05
2022-11-05T20:07:37.662Z,9.30
2022-11-05T20:10:06.624Z,9.90
2022-11-05T20:12:35.365Z,8.55
2022-11-05T20:15:03.675Z,7.05
2022-11-05T20:17:32.135Z,8.55
2022-11-05T20:20:00.623Z,7.50
2022-11-05T20:22:29.967Z,7.70
2022-11-05T20:24:58.033Z,7.80
2022-11-05T20:27:26.105Z,9.68
2022-11-05T20:29:54.000Z,9.07
2022-11-05T20:32:22.261Z,8.93
2022-11-05T20:34:53.256Z,9.25
2022-11-05T20:37:21.229Z,11.35
2022-11-05T20:39:50.470Z,10.25
2022-11-05T20:42:18.832Z,9.60
2022-11-05T20:44:46.870Z,9.75
2022-11-05T20:47:14.896Z,10.38
2022-11-05T20:49:43.026Z,9.23
2022-11-05T20:52:12.198Z,8.05
2022-11-05T20:54:40.120Z,8.07
2022-11-05T20:57:10.782Z,8.25
2022-11-05T20:59:38.789Z,7.70
2022-11-05T21:02:06.909Z,8.80
2022-11-05T21:04:34.999Z,6.88
2022-11-05T21:07:02.997Z,7.78
2022-11-05T21:09:31.110Z,9.00
2022-11-05T21:12:11.224Z,6.45
2022-11-05T21:14:41.884Z,7.18
2022-11-05T21:17:12.266Z,8.77
2022-11-05T21:19:40.518Z,6.93
2022-11-05T21:22:08.718Z,7.53
2022-11-05T21:24:36.939Z,8.32
2022-11-05T21:27:05.268Z,7.43
2022-11-05T21:29:33.241Z,10.00
2022-11-05T21:32:02.856Z,8.50
2022-11-05T21:34:30.995Z,8.23
2022-11-05T21:36:59.029Z,9.20
2022-11-05T21:39:27.737Z,9.50
2022-11-05T21:41:57.361Z,9.95
2022-11-05T21:44:25.647Z,10.00
2022-11-05T21:46:57.512Z,10.50
2022-11-05T21:49:27.090Z,8.98
2022-11-05T21:52:27.496Z,8.35
2022-11-05T21:55:13.353Z,8.82
2022-11-05T21:57:59.642Z,9.10
2022-11-05T22:00:27.672Z,9.30
2022-11-05T22:02:55.779Z,9.70
2022-11-05T22:05:25.442Z,9.85
2022-11-05T22:07:53.845Z,9.05
2022-11-05T22:10:22.248Z,9.40
2022-11-05T22:12:50.286Z,9.93
2022-11-05T22:15:18.270Z,9.90
2022-11-05T22:17:47.467Z,10.23
2022-11-05T22:20:16.318Z,9.57
2022-11-05T22:22:46.726Z,10.20
2022-11-05T22:25:15.260Z,8.88
2022-11-05T22:27:44.008Z,7.35
2022-11-05T22:30:13.698Z,8.10
2022-11-05T22:32:41.665Z,9.38
2022-11-05T22:35:10.503Z,8.20
2022-11-05T22:37:38.499Z,9.38
2022-11-05T22:40:09.687Z,9.10
2022-11-05T22:42:38.369Z,8.45
2022-11-05T22:45:07.448Z,7.60
2022-11-05T22:47:35.498Z,7.80
2022-11-05T22:50:03.515Z,8.05
2022-11-05T22:52:32.717Z,6.90
2022-11-05T22:55:02.614Z,7.25
2022-11-05T22:57:32.013Z,6.57
2022-11-05T23:00:00.363Z,8.10
2022-11-05T23:02:28.520Z,6.07
2022-11-05T23:04:56.766Z,6.25
2022-11-05T23:07:42.199Z,7.90
2022-11-05T23:10:27.949Z,6.38
2022-11-05T23:12:57.252Z,7.78
2022-11-05T23:15:42.909Z,6.25
2022-11-05T23:18:29.380Z,7.57
2022-11-05T23:21:19.186Z,7.13
2022-11-05T23:24:06.005Z,6.80
2022-11-05T23:26:54.046Z,6.18
2022-11-05T23:29:25.444Z,6.85
2022-11-05T23:32:11.744Z,6.40
2022-11-05T23:34:40.023Z,5.28
2022-11-05T23:37:25.713Z,6.20
2022-11-05T23:39:53.804Z,6.95
2022-11-05T23:42:40.146Z,6.78
2022-11-05T23:45:28.766Z,6.47
2022-11-05T23:48:14.532Z,6.50
2022-11-05T23:50:44.733Z,6.57
2022-11-05T23:53:12.859Z,6.82
2022-11-05T23:55:40.937Z,6.00
2022-11-05T23:58:09.529Z,6.97
